KHSA

Stennis International Airport

Bay St Louis, Mississippi, USA
METAR KHSA 240252Z 16006KT 7SM SCT034 BKN060 22/20 A3019
Observed Flight Rules
Feb-24 @ 02:52 UTC (10 hours ago) Visual Flight Rules
Wind Visibility Clouds
160° at 6 knots 7 miles
  • Scattered at 3,400' AGL
  • Broken at 6,000' AGL
Temperatures Readings
Current 22°C / 72°F
Dewpoint 20°C / 68°F
Humidity 88%
Altimeter 30.19" Hg
Pressure 1022 hPa
Elevation 7
METAR KHSA 240252Z 16006KT 7SM SCT034 BKN060 22/20 A3019
Observed Flight Rules
Feb-24 @ 02:52 UTC
(10 hours ago)
VFR
Wind Visibility
160° at 6 knots 7 miles
Clouds
  • Scattered at 3,400' AGL
  • Broken at 6,000' AGL
Temperature Dewpoint
22°C / 72°F 20°C / 68°F
Humidity Altimeter Pressure
88% 30.19" Hg 1022 hPa